TAP1933 LPPR-LPPT
Flight info
| Callsign | TAP1933 |
|---|---|
| Flight time | 0h 37m |
| Altitude | 31000 |
| Route | MANIK DCT ABRIL DCT XAMAX |
| Aircraft | A320/M-SDE3FGHIRWY/LB1 |
Departure
| Time | 2026-05-04 17:39 |
|---|---|
| Airport | Francisco de Sá Carneiro Airport (LPPR) |
Arrival
| Time | 2026-05-04 18:17 |
|---|---|
| Airport | Lisbon Humberto Delgado Airport (LPPT) |
| Time | Latitude | Longitude | Altitude | Speed | Heading |
|---|---|---|---|---|---|
| 2026-05-04 17:23 | 41.23593 | -8.67220 | 245 ft | 0 kts | 89° |
| 2026-05-04 17:30 | 41.23607 | -8.67298 | 243 ft | 4 kts | 125° |
| 2026-05-04 17:31 | 41.23644 | -8.67335 | 242 ft | 0 kts | 168° |
| 2026-05-04 17:35 | 41.23619 | -8.67330 | 242 ft | 6 kts | 176° |
| 2026-05-04 17:35 | 41.23509 | -8.67388 | 240 ft | 11 kts | 189° |
| 2026-05-04 17:35 | 41.23419 | -8.67369 | 239 ft | 16 kts | 168° |
| 2026-05-04 17:36 | 41.23335 | -8.67417 | 240 ft | 16 kts | 256° |
| 2026-05-04 17:36 | 41.23316 | -8.67542 | 235 ft | 12 kts | 259° |
| 2026-05-04 17:36 | 41.23309 | -8.67595 | 235 ft | 0 kts | 259° |
| 2026-05-04 17:37 | 41.23307 | -8.67602 | 235 ft | 5 kts | 259° |
| 2026-05-04 17:37 | 41.23294 | -8.67701 | 238 ft | 14 kts | 269° |
| 2026-05-04 17:38 | 41.23396 | -8.67756 | 237 ft | 33 kts | 348° |
| 2026-05-04 17:38 | 41.23875 | -8.67884 | 223 ft | 103 kts | 349° |
| 2026-05-04 17:38 | 41.24764 | -8.68115 | 201 ft | 156 kts | 347° |
| 2026-05-04 17:38 | 41.25905 | -8.68429 | 625 ft | 170 kts | 345° |
| 2026-05-04 17:39 | 41.28255 | -8.69042 | 1956 ft | 186 kts | 344° |
| 2026-05-04 17:39 | 41.29606 | -8.69404 | 2325 ft | 210 kts | 343° |
| 2026-05-04 17:39 | 41.31125 | -8.69809 | 2811 ft | 235 kts | 345° |
| 2026-05-04 17:40 | 41.32773 | -8.70242 | 3552 ft | 245 kts | 346° |
| 2026-05-04 17:40 | 41.34468 | -8.70683 | 4433 ft | 251 kts | 345° |
| 2026-05-04 17:40 | 41.36201 | -8.71132 | 5315 ft | 257 kts | 346° |
| 2026-05-04 17:40 | 41.37971 | -8.71589 | 6208 ft | 260 kts | 346° |
| 2026-05-04 17:41 | 41.39707 | -8.72255 | 7053 ft | 260 kts | 329° |
| 2026-05-04 17:41 | 41.41064 | -8.73810 | 7851 ft | 261 kts | 303° |
| 2026-05-04 17:41 | 41.41728 | -8.76050 | 8664 ft | 265 kts | 277° |
| 2026-05-04 17:41 | 41.41588 | -8.78512 | 9523 ft | 270 kts | 260° |
| 2026-05-04 17:42 | 41.41161 | -8.80950 | 10364 ft | 273 kts | 251° |
| 2026-05-04 17:42 | 41.40118 | -8.83153 | 10804 ft | 297 kts | 226° |
| 2026-05-04 17:42 | 41.38260 | -8.84583 | 11035 ft | 328 kts | 198° |
| 2026-05-04 17:42 | 41.35914 | -8.84703 | 11399 ft | 350 kts | 175° |
| 2026-05-04 17:43 | 41.33473 | -8.84170 | 12044 ft | 358 kts | 172° |
| 2026-05-04 17:43 | 41.31024 | -8.83492 | 12747 ft | 363 kts | 171° |
| 2026-05-04 17:43 | 41.28540 | -8.82751 | 13441 ft | 367 kts | 171° |
| 2026-05-04 17:43 | 41.26034 | -8.82008 | 14116 ft | 371 kts | 171° |
| 2026-05-04 17:44 | 41.23499 | -8.81284 | 14741 ft | 375 kts | 172° |
| 2026-05-04 17:44 | 41.20927 | -8.80577 | 15328 ft | 379 kts | 173° |
| 2026-05-04 17:44 | 41.18334 | -8.79884 | 15922 ft | 383 kts | 173° |
| 2026-05-04 17:44 | 41.15699 | -8.79193 | 16524 ft | 387 kts | 174° |
| 2026-05-04 17:45 | 41.13041 | -8.78500 | 17117 ft | 391 kts | 174° |
| 2026-05-04 17:45 | 41.10357 | -8.77801 | 17699 ft | 395 kts | 174° |
| 2026-05-04 17:45 | 41.07647 | -8.77091 | 18286 ft | 399 kts | 174° |
| 2026-05-04 17:45 | 41.04931 | -8.76245 | 18805 ft | 406 kts | 168° |
| 2026-05-04 17:46 | 41.02210 | -8.75124 | 19320 ft | 410 kts | 168° |
| 2026-05-04 17:46 | 40.99484 | -8.74001 | 19814 ft | 412 kts | 168° |
| 2026-05-04 17:46 | 40.96738 | -8.72872 | 20330 ft | 415 kts | 168° |
| 2026-05-04 17:46 | 40.93975 | -8.71737 | 20832 ft | 418 kts | 168° |
| 2026-05-04 17:47 | 40.91197 | -8.70597 | 21375 ft | 419 kts | 168° |
| 2026-05-04 17:47 | 40.88407 | -8.69455 | 21883 ft | 421 kts | 168° |
| 2026-05-04 17:47 | 40.85598 | -8.68308 | 22367 ft | 423 kts | 169° |
| 2026-05-04 17:47 | 40.82779 | -8.67157 | 22841 ft | 426 kts | 169° |
| 2026-05-04 17:48 | 40.79936 | -8.65994 | 23049 ft | 428 kts | 169° |
| 2026-05-04 17:48 | 40.77095 | -8.64832 | 23100 ft | 428 kts | 169° |
| 2026-05-04 17:48 | 40.75212 | -8.64062 | 23101 ft | 428 kts | 169° |
| 2026-05-04 17:48 | 40.71407 | -8.62512 | 23100 ft | 427 kts | 169° |
| 2026-05-04 17:49 | 40.68549 | -8.61592 | 23099 ft | 420 kts | 178° |
| 2026-05-04 17:49 | 40.65707 | -8.61182 | 23098 ft | 416 kts | 181° |
| 2026-05-04 17:49 | 40.62781 | -8.60835 | 23097 ft | 416 kts | 181° |
| 2026-05-04 17:49 | 40.59892 | -8.60490 | 23098 ft | 416 kts | 181° |
| 2026-05-04 17:50 | 40.57011 | -8.60140 | 23087 ft | 417 kts | 182° |
| 2026-05-04 17:50 | 40.54122 | -8.59789 | 23094 ft | 418 kts | 182° |
| 2026-05-04 17:50 | 40.51216 | -8.59434 | 23098 ft | 418 kts | 182° |
| 2026-05-04 17:50 | 40.48326 | -8.59082 | 23097 ft | 418 kts | 182° |
| 2026-05-04 17:51 | 40.45425 | -8.58731 | 23093 ft | 418 kts | 182° |
| 2026-05-04 17:51 | 40.42555 | -8.58384 | 23116 ft | 418 kts | 182° |
| 2026-05-04 17:51 | 40.39646 | -8.58033 | 23095 ft | 417 kts | 182° |
| 2026-05-04 17:51 | 40.36750 | -8.57683 | 23098 ft | 418 kts | 182° |
| 2026-05-04 17:52 | 40.33893 | -8.57337 | 23097 ft | 418 kts | 182° |
| 2026-05-04 17:52 | 40.30987 | -8.56984 | 23098 ft | 418 kts | 182° |
| 2026-05-04 17:52 | 40.28078 | -8.56754 | 23098 ft | 411 kts | 190° |
| 2026-05-04 17:52 | 40.25321 | -8.57385 | 23097 ft | 396 kts | 205° |
| 2026-05-04 17:53 | 40.22747 | -8.58615 | 23096 ft | 394 kts | 207° |
| 2026-05-04 17:53 | 40.20218 | -8.59862 | 23094 ft | 393 kts | 208° |
| 2026-05-04 17:53 | 40.17666 | -8.61132 | 23093 ft | 394 kts | 208° |
| 2026-05-04 17:53 | 40.15103 | -8.62411 | 23073 ft | 394 kts | 208° |
| 2026-05-04 17:54 | 40.12545 | -8.63686 | 23098 ft | 393 kts | 208° |
| 2026-05-04 17:54 | 40.09987 | -8.64957 | 23099 ft | 393 kts | 208° |
| 2026-05-04 17:54 | 40.07436 | -8.66224 | 23105 ft | 393 kts | 208° |
| 2026-05-04 17:54 | 40.04839 | -8.67511 | 23104 ft | 393 kts | 208° |
| 2026-05-04 17:55 | 40.02314 | -8.68758 | 23107 ft | 393 kts | 208° |
| 2026-05-04 17:55 | 39.99755 | -8.70015 | 23115 ft | 393 kts | 208° |
| 2026-05-04 17:55 | 39.97195 | -8.71274 | 23111 ft | 393 kts | 208° |
| 2026-05-04 17:55 | 39.94637 | -8.72532 | 23103 ft | 394 kts | 208° |
| 2026-05-04 17:56 | 39.92086 | -8.73790 | 23085 ft | 394 kts | 208° |
| 2026-05-04 17:56 | 39.89505 | -8.75060 | 23111 ft | 394 kts | 208° |
| 2026-05-04 17:56 | 39.86942 | -8.76319 | 23113 ft | 396 kts | 208° |
| 2026-05-04 17:56 | 39.84351 | -8.77592 | 23110 ft | 399 kts | 208° |
| 2026-05-04 17:57 | 39.81753 | -8.78865 | 23110 ft | 399 kts | 207° |
| 2026-05-04 17:57 | 39.79149 | -8.80141 | 23112 ft | 400 kts | 207° |
| 2026-05-04 17:57 | 39.76547 | -8.81415 | 23112 ft | 400 kts | 207° |
| 2026-05-04 17:57 | 39.73946 | -8.82684 | 23110 ft | 400 kts | 207° |
| 2026-05-04 17:58 | 39.71342 | -8.83953 | 23110 ft | 400 kts | 207° |
| 2026-05-04 17:58 | 39.68735 | -8.85224 | 23076 ft | 400 kts | 207° |
| 2026-05-04 17:58 | 39.66131 | -8.86496 | 23106 ft | 400 kts | 207° |
| 2026-05-04 17:58 | 39.63528 | -8.87770 | 23109 ft | 400 kts | 207° |
| 2026-05-04 17:59 | 39.60934 | -8.89040 | 23109 ft | 400 kts | 207° |
| 2026-05-04 17:59 | 39.58325 | -8.90316 | 23106 ft | 400 kts | 207° |
| 2026-05-04 17:59 | 39.53116 | -8.92851 | 23104 ft | 400 kts | 207° |
| 2026-05-04 18:00 | 39.50512 | -8.94113 | 23099 ft | 400 kts | 207° |
| 2026-05-04 18:00 | 39.47908 | -8.95376 | 23102 ft | 399 kts | 207° |
| 2026-05-04 18:00 | 39.45311 | -8.96636 | 23072 ft | 399 kts | 208° |
| 2026-05-04 18:00 | 39.42708 | -8.97896 | 23077 ft | 399 kts | 208° |
| 2026-05-04 18:01 | 39.40142 | -8.99136 | 23086 ft | 399 kts | 207° |
| 2026-05-04 18:01 | 39.37505 | -9.00410 | 23080 ft | 400 kts | 207° |
| 2026-05-04 18:01 | 39.34929 | -9.01654 | 23036 ft | 398 kts | 207° |
| 2026-05-04 18:02 | 39.29823 | -9.04105 | 22480 ft | 389 kts | 207° |
| 2026-05-04 18:02 | 39.27295 | -9.05323 | 22222 ft | 387 kts | 207° |
| 2026-05-04 18:02 | 39.24777 | -9.06539 | 21953 ft | 386 kts | 207° |
| 2026-05-04 18:02 | 39.22273 | -9.07748 | 21658 ft | 384 kts | 207° |
| 2026-05-04 18:03 | 39.19772 | -9.08953 | 21398 ft | 383 kts | 207° |
| 2026-05-04 18:03 | 39.17277 | -9.10155 | 21141 ft | 383 kts | 207° |
| 2026-05-04 18:03 | 39.14779 | -9.11355 | 20878 ft | 382 kts | 207° |
| 2026-05-04 18:03 | 39.12291 | -9.12549 | 20624 ft | 381 kts | 207° |
| 2026-05-04 18:04 | 39.09805 | -9.13742 | 20375 ft | 380 kts | 207° |
| 2026-05-04 18:04 | 39.07330 | -9.14928 | 20066 ft | 379 kts | 207° |
| 2026-05-04 18:04 | 39.02435 | -9.17267 | 19254 ft | 370 kts | 206° |
| 2026-05-04 18:05 | 39.00038 | -9.18410 | 18813 ft | 367 kts | 206° |
| 2026-05-04 18:05 | 38.97647 | -9.19554 | 18321 ft | 365 kts | 206° |
| 2026-05-04 18:05 | 38.95275 | -9.20692 | 17824 ft | 362 kts | 206° |
| 2026-05-04 18:05 | 38.92912 | -9.21823 | 17213 ft | 363 kts | 206° |
| 2026-05-04 18:06 | 38.88201 | -9.24066 | 15839 ft | 357 kts | 205° |
| 2026-05-04 18:06 | 38.85879 | -9.25166 | 14949 ft | 354 kts | 205° |
| 2026-05-04 18:06 | 38.83575 | -9.26256 | 14079 ft | 352 kts | 205° |
| 2026-05-04 18:07 | 38.81288 | -9.27337 | 13155 ft | 348 kts | 204° |
| 2026-05-04 18:07 | 38.79036 | -9.28405 | 12251 ft | 344 kts | 204° |
| 2026-05-04 18:07 | 38.77549 | -9.29115 | 11662 ft | 342 kts | 204° |
| 2026-05-04 18:07 | 38.74539 | -9.30342 | 10486 ft | 341 kts | 192° |
| 2026-05-04 18:08 | 38.72992 | -9.30582 | 10083 ft | 335 kts | 189° |
| 2026-05-04 18:08 | 38.70708 | -9.30889 | 9428 ft | 325 kts | 188° |
| 2026-05-04 18:08 | 38.68484 | -9.31193 | 8775 ft | 317 kts | 188° |
| 2026-05-04 18:08 | 38.66318 | -9.31481 | 8131 ft | 309 kts | 189° |
| 2026-05-04 18:09 | 38.62131 | -9.32024 | 6891 ft | 297 kts | 187° |
| 2026-05-04 18:09 | 38.58108 | -9.32560 | 5624 ft | 285 kts | 186° |
| 2026-05-04 18:10 | 38.56158 | -9.32284 | 4985 ft | 283 kts | 161° |
| 2026-05-04 18:10 | 38.54530 | -9.30939 | 4334 ft | 280 kts | 131° |
| 2026-05-04 18:10 | 38.53557 | -9.28894 | 4052 ft | 259 kts | 104° |
| 2026-05-04 18:10 | 38.53481 | -9.26763 | 4002 ft | 226 kts | 71° |
| 2026-05-04 18:11 | 38.54139 | -9.25139 | 4001 ft | 192 kts | 33° |
| 2026-05-04 18:11 | 38.55307 | -9.24687 | 4013 ft | 173 kts | 346° |
| 2026-05-04 18:11 | 38.56496 | -9.24975 | 4008 ft | 177 kts | 357° |
| 2026-05-04 18:11 | 38.57666 | -9.24474 | 4028 ft | 183 kts | 22° |
| 2026-05-04 18:12 | 38.58833 | -9.23840 | 4005 ft | 181 kts | 15° |
| 2026-05-04 18:12 | 38.60009 | -9.23244 | 3856 ft | 182 kts | 16° |
| 2026-05-04 18:12 | 38.61181 | -9.22631 | 3656 ft | 181 kts | 17° |
| 2026-05-04 18:12 | 38.62332 | -9.22021 | 3422 ft | 178 kts | 18° |
| 2026-05-04 18:13 | 38.63468 | -9.21417 | 3177 ft | 175 kts | 17° |
| 2026-05-04 18:13 | 38.64562 | -9.20835 | 2939 ft | 171 kts | 18° |
| 2026-05-04 18:13 | 38.66742 | -9.19673 | 2472 ft | 165 kts | 16° |
| 2026-05-04 18:14 | 38.67798 | -9.19111 | 2261 ft | 165 kts | 17° |
| 2026-05-04 18:14 | 38.68837 | -9.18556 | 2049 ft | 157 kts | 17° |
| 2026-05-04 18:14 | 38.69835 | -9.18024 | 1827 ft | 154 kts | 18° |
| 2026-05-04 18:15 | 38.71856 | -9.16948 | 1411 ft | 158 kts | 17° |
| 2026-05-04 18:15 | 38.73807 | -9.15904 | 990 ft | 146 kts | 17° |
| 2026-05-04 18:15 | 38.74734 | -9.15410 | 789 ft | 143 kts | 17° |
| 2026-05-04 18:16 | 38.75662 | -9.14915 | 608 ft | 143 kts | 16° |
| 2026-05-04 18:16 | 38.76576 | -9.14427 | 394 ft | 141 kts | 16° |
| 2026-05-04 18:16 | 38.77422 | -9.13984 | 365 ft | 116 kts | 21° |
| 2026-05-04 18:17 | 38.78264 | -9.13494 | 365 ft | 29 kts | 39° |
| 2026-05-04 18:17 | 38.78378 | -9.13317 | 362 ft | 16 kts | 87° |
| 2026-05-04 18:17 | 38.78242 | -9.13305 | 363 ft | 14 kts | 204° |
| 2026-05-04 18:18 | 38.78154 | -9.13353 | 362 ft | 13 kts | 202° |
| 2026-05-04 18:18 | 38.78074 | -9.13394 | 364 ft | 12 kts | 202° |
| 2026-05-04 18:18 | 38.77978 | -9.13445 | 364 ft | 20 kts | 205° |
| 2026-05-04 18:18 | 38.77838 | -9.13513 | 362 ft | 23 kts | 184° |
| 2026-05-04 18:19 | 38.77509 | -9.13427 | 347 ft | 25 kts | 168° |
| 2026-05-04 18:19 | 38.77370 | -9.13389 | 345 ft | 14 kts | 168° |
| 2026-05-04 18:19 | 38.77327 | -9.13305 | 339 ft | 13 kts | 82° |
| 2026-05-04 18:20 | 38.77271 | -9.13244 | 335 ft | 11 kts | 168° |
| 2026-05-04 18:20 | 38.77202 | -9.13224 | 333 ft | 9 kts | 157° |
| 2026-05-04 18:20 | 38.77202 | -9.13167 | 334 ft | 7 kts | 76° |
| 2026-05-04 18:20 | 38.77207 | -9.13137 | 333 ft | 0 kts | 78° |